Time;durP1;ratioP1;P1;durP2;ratioP2;P2;SDS_P1;SDS_P2;PMS_P1;PMS_P2;Temp;Humidity;BMP_temperature;BMP_pressure;BME280_temperature;BME280_humidity;BME280_pressure;Samples;Min_cycle;Max_cycle;Signal;HPM_P1;HPM_P2
2023/12/25 00:00:56;;;;;;;2.33;2.33;;;9.50;82.90;;;;;;6281450;28;20327;-82
2023/12/25 00:04:00;;;;;;;2.50;2.30;;;9.50;82.90;;;;;;6265433;28;20249;-83
2023/12/25 00:07:03;;;;;;;3.00;2.90;;;9.50;82.70;;;;;;6280548;28;20256;-82
2023/12/25 00:10:09;;;;;;;2.30;2.20;;;9.40;82.80;;;;;;6269895;28;20710;-82
2023/12/25 00:13:12;;;;;;;2.40;2.20;;;9.50;82.70;;;;;;6286992;28;20253;-83
2023/12/25 00:16:16;;;;;;;2.33;2.30;;;9.40;82.80;;;;;;6275969;28;20241;-83
2023/12/25 00:19:20;;;;;;;2.50;2.40;;;9.40;82.80;;;;;;6289544;28;20241;-82
2023/12/25 00:22:23;;;;;;;2.80;2.67;;;9.40;82.40;;;;;;6273150;28;20233;-82
2023/12/25 00:25:27;;;;;;;2.80;2.63;;;9.40;82.50;;;;;;6272652;28;20242;-84
2023/12/25 00:28:31;;;;;;;2.60;2.57;;;9.40;82.20;;;;;;6282988;28;20634;-82
2023/12/25 00:31:34;;;;;;;2.40;2.40;;;9.30;82.20;;;;;;6275167;28;20233;-81
2023/12/25 00:34:37;;;;;;;2.80;2.63;;;9.20;82.20;;;;;;6281131;28;20341;-80
2023/12/25 00:37:40;;;;;;;2.50;2.40;;;9.20;82.40;;;;;;6285429;28;20240;-81
2023/12/25 00:40:44;;;;;;;2.57;2.53;;;9.20;82.30;;;;;;6273884;28;20275;-83
2023/12/25 00:43:47;;;;;;;2.80;2.60;;;9.30;82.00;;;;;;6284232;28;20233;-82
2023/12/25 00:46:51;;;;;;;3.30;2.80;;;9.40;81.70;;;;;;6286850;28;20326;-83
2023/12/25 00:49:54;;;;;;;2.80;2.63;;;9.40;81.50;;;;;;6275593;28;20272;-82
2023/12/25 00:52:57;;;;;;;2.30;2.30;;;9.40;81.20;;;;;;6289427;28;20237;-83
2023/12/25 00:56:05;;;;;;;2.77;2.67;;;9.50;81.00;;;;;;6280558;28;20243;-82
2023/12/25 00:59:08;;;;;;;3.30;2.57;;;9.50;81.00;;;;;;6280164;28;20248;-83
2023/12/25 01:02:14;;;;;;;2.37;2.37;;;9.50;80.70;;;;;;6282095;28;20241;-77
2023/12/25 01:05:18;;;;;;;2.67;2.47;;;9.50;80.80;;;;;;6273360;28;20237;-83
2023/12/25 01:08:21;;;;;;;3.27;3.13;;;9.60;80.50;;;;;;6280409;28;20594;-79
2023/12/25 01:11:26;;;;;;;2.67;2.47;;;9.50;80.80;;;;;;6280216;28;20240;-81
2023/12/25 01:14:29;;;;;;;3.50;2.83;;;9.60;80.80;;;;;;6288021;28;20894;-82
2023/12/25 01:17:32;;;;;;;2.87;2.77;;;9.60;80.90;;;;;;6282662;28;20245;-83
2023/12/25 01:20:36;;;;;;;3.00;2.90;;;9.50;81.40;;;;;;6287992;28;20238;-81
2023/12/25 01:23:39;;;;;;;3.53;2.90;;;9.50;81.50;;;;;;6283894;28;20245;-81
2023/12/25 01:26:44;;;;;;;2.90;2.70;;;9.60;81.30;;;;;;6276742;28;20232;-81
2023/12/25 01:29:47;;;;;;;4.03;3.10;;;9.60;81.30;;;;;;6288628;28;20225;-83
2023/12/25 01:32:51;;;;;;;2.63;2.53;;;9.60;81.30;;;;;;6281374;28;20810;-81
2023/12/25 01:35:54;;;;;;;3.47;3.17;;;9.70;81.30;;;;;;6272788;28;20280;-78
2023/12/25 01:38:57;;;;;;;3.90;3.07;;;9.60;81.30;;;;;;6289300;28;20237;-80
2023/12/25 01:42:02;;;;;;;5.63;3.00;;;9.70;81.30;;;;;;6287398;28;20233;-80
2023/12/25 01:45:06;;;;;;;4.10;3.00;;;9.70;81.30;;;;;;6270542;28;20253;-84
2023/12/25 01:48:10;;;;;;;3.40;3.10;;;9.70;81.40;;;;;;6288326;28;20233;-81
2023/12/25 01:51:17;;;;;;;2.73;2.63;;;9.70;81.60;;;;;;6279684;28;20749;-82
2023/12/25 01:54:20;;;;;;;3.33;3.13;;;9.70;82.00;;;;;;6274266;28;20610;-82
2023/12/25 01:57:25;;;;;;;3.20;3.00;;;9.60;82.40;;;;;;6285886;28;20241;-80
2023/12/25 02:00:28;;;;;;;3.23;2.90;;;9.60;82.90;;;;;;6271312;28;20257;-79
2023/12/25 02:03:32;;;;;;;3.47;3.17;;;9.50;83.20;;;;;;6262806;28;20240;-82
2023/12/25 02:06:36;;;;;;;3.27;3.17;;;9.50;83.20;;;;;;6281641;28;20746;-83
2023/12/25 02:09:39;;;;;;;3.30;3.10;;;9.50;83.20;;;;;;6279833;28;20245;-82
2023/12/25 02:12:44;;;;;;;3.27;3.00;;;9.50;83.40;;;;;;6281421;28;20226;-83
2023/12/25 02:15:48;;;;;;;3.30;3.20;;;9.50;83.40;;;;;;6283484;28;20240;-82
2023/12/25 02:18:53;;;;;;;4.53;3.13;;;9.50;83.20;;;;;;6274861;28;20306;-83
2023/12/25 02:21:57;;;;;;;5.80;3.00;;;9.50;83.30;;;;;;6270674;28;20244;-82
2023/12/25 02:25:02;;;;;;;3.10;2.90;;;9.40;83.30;;;;;;6274005;28;20241;-81
2023/12/25 02:28:07;;;;;;;5.90;3.03;;;9.50;83.30;;;;;;6277513;28;20233;-81
2023/12/25 02:31:12;;;;;;;3.40;3.20;;;9.50;83.20;;;;;;6279935;28;20240;-81
2023/12/25 02:34:15;;;;;;;4.40;3.20;;;9.60;82.90;;;;;;6280167;28;20241;-81
2023/12/25 02:37:18;;;;;;;3.93;3.10;;;9.60;82.70;;;;;;6283100;28;20228;-79
2023/12/25 02:40:22;;;;;;;3.20;3.10;;;9.70;82.30;;;;;;6288290;28;20249;-81
2023/12/25 02:43:27;;;;;;;3.53;3.13;;;9.80;81.10;;;;;;6278929;28;20258;-78
2023/12/25 02:46:30;;;;;;;3.70;3.40;;;10.00;80.30;;;;;;6279670;28;20249;-82
2023/12/25 02:49:33;;;;;;;3.57;3.30;;;10.00;79.70;;;;;;6290189;28;20336;-79
2023/12/25 02:52:36;;;;;;;3.47;2.70;;;10.00;79.70;;;;;;6293449;28;20709;-81
2023/12/25 02:55:39;;;;;;;3.20;3.00;;;10.00;79.50;;;;;;6270309;28;20336;-81
2023/12/25 02:58:44;;;;;;;3.20;2.90;;;10.10;79.40;;;;;;6277788;28;20229;-81
2023/12/25 03:01:49;;;;;;;3.20;2.90;;;10.10;79.60;;;;;;6277010;28;20753;-83
2023/12/25 03:04:52;;;;;;;3.20;2.97;;;10.00;79.70;;;;;;6283292;28;20271;-83
2023/12/25 03:07:55;;;;;;;3.77;2.90;;;10.00;79.80;;;;;;6294272;28;20321;-80
2023/12/25 03:10:59;;;;;;;3.17;3.03;;;10.10;80.30;;;;;;6294901;28;20251;-80
2023/12/25 03:14:04;;;;;;;3.03;2.83;;;10.00;80.80;;;;;;6277873;28;20326;-83
2023/12/25 03:17:07;;;;;;;3.33;3.10;;;10.00;81.50;;;;;;6286606;28;20264;-80
2023/12/25 03:20:12;;;;;;;3.57;3.27;;;10.00;81.90;;;;;;6285033;28;20248;-80
2023/12/25 03:23:15;;;;;;;4.87;3.90;;;10.00;82.20;;;;;;6262308;28;20226;-83
2023/12/25 03:26:19;;;;;;;4.40;3.00;;;10.00;82.10;;;;;;6285150;28;20240;-84
2023/12/25 03:29:24;;;;;;;3.07;2.87;;;9.80;82.20;;;;;;6293931;28;20232;-84
2023/12/25 03:32:27;;;;;;;3.37;3.17;;;9.70;82.60;;;;;;6271053;28;20765;-80
2023/12/25 03:35:31;;;;;;;4.27;3.27;;;9.70;82.60;;;;;;6273831;28;20314;-82
2023/12/25 03:38:34;;;;;;;3.00;2.90;;;9.70;82.70;;;;;;6287337;28;20233;-82
2023/12/25 03:41:38;;;;;;;3.47;3.17;;;9.60;82.90;;;;;;6284972;28;20254;-84
2023/12/25 03:44:42;;;;;;;3.03;2.93;;;9.60;82.90;;;;;;6285067;28;20325;-84
2023/12/25 03:47:47;;;;;;;3.07;2.87;;;9.60;82.90;;;;;;6277617;28;20241;-83
2023/12/25 03:50:50;;;;;;;2.77;2.67;;;9.60;82.70;;;;;;6287818;28;20284;-81
2023/12/25 03:53:53;;;;;;;3.13;3.00;;;9.50;82.80;;;;;;6291487;28;20229;-81
2023/12/25 03:56:56;;;;;;;3.10;2.90;;;9.50;82.80;;;;;;6288039;28;20233;-83
2023/12/25 04:00:01;;;;;;;3.20;3.00;;;9.60;82.40;;;;;;6285630;28;20229;-81
2023/12/25 04:03:05;;;;;;;3.03;2.90;;;9.60;82.50;;;;;;6293463;28;20584;-83
2023/12/25 04:06:08;;;;;;;5.07;3.10;;;9.50;82.40;;;;;;6291628;28;20237;-82
2023/12/25 04:09:12;;;;;;;4.00;3.00;;;9.50;82.10;;;;;;6279690;28;20248;-82
2023/12/25 04:12:15;;;;;;;2.77;2.67;;;9.50;82.30;;;;;;6274975;28;20451;-82
2023/12/25 04:15:19;;;;;;;3.33;3.13;;;9.50;82.20;;;;;;6281727;28;20321;-82
2023/12/25 04:18:23;;;;;;;3.10;2.80;;;9.60;81.90;;;;;;6288080;28;20237;-81
2023/12/25 04:21:27;;;;;;;3.70;3.50;;;9.60;82.10;;;;;;6283156;28;20836;-80
2023/12/25 04:24:30;;;;;;;3.10;2.90;;;9.60;82.20;;;;;;6266185;28;20241;-84
2023/12/25 04:27:33;;;;;;;3.20;3.10;;;9.60;82.30;;;;;;6290477;28;20636;-83
2023/12/25 04:30:38;;;;;;;2.93;2.73;;;9.50;82.50;;;;;;6280861;28;20248;-82
2023/12/25 04:33:41;;;;;;;5.17;3.03;;;9.70;82.10;;;;;;6287956;28;20233;-81
2023/12/25 04:36:44;;;;;;;3.33;3.03;;;9.60;82.20;;;;;;6289756;28;20286;-78
2023/12/25 04:39:47;;;;;;;4.13;3.80;;;9.60;82.50;;;;;;6289114;28;20774;-83
2023/12/25 04:42:51;;;;;;;3.10;2.80;;;9.70;82.50;;;;;;6287539;28;20241;-84
2023/12/25 04:45:55;;;;;;;3.13;3.00;;;9.70;82.30;;;;;;6280740;28;20252;-82
2023/12/25 04:48:58;;;;;;;3.67;3.20;;;9.80;81.60;;;;;;6274413;28;20234;-84
2023/12/25 04:52:02;;;;;;;3.10;2.90;;;9.90;81.00;;;;;;6286094;28;20229;-83
2023/12/25 04:55:05;;;;;;;3.10;3.00;;;10.00;80.70;;;;;;6292689;28;20243;-83
2023/12/25 04:58:08;;;;;;;3.17;2.97;;;10.00;80.50;;;;;;6276731;28;20796;-81
2023/12/25 05:01:13;;;;;;;6.87;3.07;;;10.10;79.70;;;;;;6292539;28;20740;-81
2023/12/25 05:04:16;;;;;;;2.97;2.70;;;10.00;79.40;;;;;;6285986;28;20752;-81
2023/12/25 05:07:20;;;;;;;2.70;2.70;;;10.00;79.40;;;;;;6271768;28;20248;-81
2023/12/25 05:10:25;;;;;;;3.93;2.93;;;10.00;79.00;;;;;;6286072;28;20241;-82
2023/12/25 05:13:30;;;;;;;2.90;2.80;;;10.10;78.30;;;;;;6292561;28;20566;-82
2023/12/25 05:16:34;;;;;;;3.17;2.97;;;10.20;78.30;;;;;;6284817;28;20256;-82
2023/12/25 05:19:43;;;;;;;3.13;2.83;;;10.20;78.30;;;;;;6274473;28;20434;-77
2023/12/25 05:22:46;;;;;;;3.70;3.30;;;10.20;78.30;;;;;;6282768;28;20233;-82
2023/12/25 05:25:49;;;;;;;3.17;2.87;;;10.30;78.20;;;;;;6275796;28;20230;-82
2023/12/25 05:28:52;;;;;;;3.07;2.97;;;10.30;78.20;;;;;;6274918;28;20315;-81
2023/12/25 05:31:58;;;;;;;3.37;3.00;;;10.40;78.00;;;;;;6283473;28;20264;-80
2023/12/25 05:35:01;;;;;;;2.90;2.80;;;10.40;77.80;;;;;;6287256;28;20657;-81
2023/12/25 05:38:04;;;;;;;3.10;3.00;;;10.40;78.00;;;;;;6272245;28;20887;-80
2023/12/25 05:41:10;;;;;;;3.87;3.10;;;10.40;77.60;;;;;;6279420;28;20225;-81
2023/12/25 05:44:13;;;;;;;3.20;3.00;;;10.40;77.30;;;;;;6283722;28;20241;-80
2023/12/25 05:47:17;;;;;;;4.73;2.83;;;10.50;76.90;;;;;;6279572;28;20382;-82
2023/12/25 05:50:21;;;;;;;3.20;2.90;;;10.50;76.40;;;;;;6275829;28;20249;-82
2023/12/25 05:53:24;;;;;;;3.07;2.80;;;10.50;76.30;;;;;;6279667;28;20289;-80
2023/12/25 05:56:28;;;;;;;3.13;2.93;;;10.60;75.70;;;;;;6278787;28;20722;-82
2023/12/25 05:59:31;;;;;;;2.83;2.70;;;10.60;75.60;;;;;;6278242;28;20861;-83
2023/12/25 06:02:36;;;;;;;2.70;2.60;;;10.60;75.20;;;;;;6282209;28;20322;-80
2023/12/25 06:05:39;;;;;;;3.00;2.80;;;10.60;75.20;;;;;;6287259;28;20233;-81
2023/12/25 06:08:42;;;;;;;3.30;3.10;;;10.60;74.90;;;;;;6270927;28;20326;-80
2023/12/25 06:11:46;;;;;;;3.50;3.10;;;10.60;75.20;;;;;;6272649;28;20290;-81
2023/12/25 06:14:49;;;;;;;4.53;2.83;;;10.50;74.70;;;;;;6266795;28;20627;-81
2023/12/25 06:17:53;;;;;;;3.43;3.23;;;10.50;74.60;;;;;;6275973;28;20252;-81
2023/12/25 06:20:57;;;;;;;3.07;2.87;;;10.60;74.40;;;;;;6279980;28;20241;-84
2023/12/25 06:24:01;;;;;;;3.20;3.00;;;10.50;74.30;;;;;;6283189;28;20246;-79
2023/12/25 06:27:05;;;;;;;3.63;2.77;;;10.50;74.00;;;;;;6272282;28;20512;-83
2023/12/25 06:30:09;;;;;;;2.93;2.73;;;10.60;73.70;;;;;;6284424;28;20779;-83
2023/12/25 06:33:13;;;;;;;2.83;2.63;;;10.50;73.90;;;;;;6283302;28;20274;-81
2023/12/25 06:36:17;;;;;;;3.10;2.90;;;10.60;73.80;;;;;;6286330;28;20248;-79
2023/12/25 06:39:20;;;;;;;2.70;2.50;;;10.60;73.60;;;;;;6275175;28;20234;-78
2023/12/25 06:42:23;;;;;;;3.27;2.97;;;10.70;73.10;;;;;;6292410;28;20375;-80
2023/12/25 06:45:27;;;;;;;2.97;2.83;;;10.60;73.10;;;;;;6281530;28;20317;-79
2023/12/25 06:48:32;;;;;;;3.00;2.80;;;10.70;73.00;;;;;;6280173;28;20238;-78
2023/12/25 06:51:35;;;;;;;4.93;3.17;;;10.70;73.00;;;;;;6268557;28;20725;-78
2023/12/25 06:54:38;;;;;;;5.03;3.30;;;10.70;73.30;;;;;;6283717;28;20363;-80
2023/12/25 06:57:42;;;;;;;3.50;3.23;;;10.70;73.10;;;;;;6279420;28;20313;-79
2023/12/25 07:00:45;;;;;;;4.40;3.30;;;10.70;73.20;;;;;;6276355;28;20254;-79
2023/12/25 07:03:50;;;;;;;2.80;2.70;;;10.60;73.30;;;;;;6269452;28;20245;-78
2023/12/25 07:06:53;;;;;;;3.07;2.97;;;10.60;72.90;;;;;;6284476;28;20886;-78
2023/12/25 07:09:56;;;;;;;3.10;3.00;;;10.60;72.90;;;;;;6282385;28;20240;-78
2023/12/25 07:12:59;;;;;;;2.90;2.73;;;10.60;72.80;;;;;;6276608;28;20237;-79
2023/12/25 07:16:03;;;;;;;2.97;2.80;;;10.50;73.00;;;;;;6284393;28;20241;-79
2023/12/25 07:19:07;;;;;;;3.33;2.83;;;10.60;72.60;;;;;;6271634;28;20320;-79
2023/12/25 07:22:11;;;;;;;2.83;2.73;;;10.50;72.60;;;;;;6281961;28;20539;-78
2023/12/25 07:25:14;;;;;;;3.03;2.73;;;10.50;72.20;;;;;;6271663;28;20252;-79
2023/12/25 07:28:17;;;;;;;3.07;2.87;;;10.50;72.10;;;;;;6280353;28;20233;-77
2023/12/25 07:31:21;;;;;;;2.67;2.53;;;10.50;71.80;;;;;;6275798;28;20793;-78
2023/12/25 07:34:26;;;;;;;2.80;2.60;;;10.50;72.10;;;;;;6271478;28;20272;-78
2023/12/25 07:37:29;;;;;;;3.30;3.00;;;10.50;72.10;;;;;;6276396;28;20265;-79
2023/12/25 07:40:32;;;;;;;3.50;3.07;;;10.50;71.80;;;;;;6272873;28;20264;-77
2023/12/25 07:43:35;;;;;;;3.30;3.10;;;10.40;71.90;;;;;;6270417;28;20309;-79
2023/12/25 07:46:38;;;;;;;3.30;3.10;;;10.40;71.50;;;;;;6284192;28;20233;-79
2023/12/25 07:49:43;;;;;;;3.83;3.10;;;10.40;71.60;;;;;;6276153;28;20249;-78
2023/12/25 07:52:46;;;;;;;2.97;2.77;;;10.40;71.10;;;;;;6277239;28;20243;-79
2023/12/25 07:55:49;;;;;;;3.13;2.70;;;10.30;71.30;;;;;;6278417;28;20266;-78
2023/12/25 07:58:52;;;;;;;4.37;3.30;;;10.40;71.00;;;;;;6281650;28;20321;-79
2023/12/25 08:01:55;;;;;;;2.73;2.63;;;10.40;70.70;;;;;;6285710;28;20712;-77
2023/12/25 08:05:00;;;;;;;3.60;3.30;;;10.40;70.30;;;;;;6281835;28;20233;-79
2023/12/25 08:08:03;;;;;;;5.20;3.07;;;10.40;70.00;;;;;;6272902;28;20771;-79
2023/12/25 08:11:06;;;;;;;3.00;2.90;;;10.40;69.80;;;;;;6280375;28;20315;-77
2023/12/25 08:14:09;;;;;;;3.43;3.10;;;10.40;69.50;;;;;;6285492;28;20830;-80
2023/12/25 08:17:13;;;;;;;5.60;2.93;;;10.40;69.30;;;;;;6274938;28;20314;-78
2023/12/25 08:20:18;;;;;;;3.20;2.90;;;10.40;68.50;;;;;;6280597;28;20287;-79
2023/12/25 08:23:21;;;;;;;3.70;3.40;;;10.40;69.00;;;;;;6284015;28;20335;-78
2023/12/25 08:26:24;;;;;;;3.03;2.83;;;10.40;68.50;;;;;;6274693;28;20362;-78
2023/12/25 08:29:27;;;;;;;2.97;2.77;;;10.40;67.80;;;;;;6267026;28;20871;-79
2023/12/25 08:32:30;;;;;;;2.80;2.70;;;10.40;67.90;;;;;;6296004;28;20240;-78
2023/12/25 08:35:35;;;;;;;7.53;3.17;;;10.40;67.90;;;;;;6277180;28;20245;-76
2023/12/25 08:38:38;;;;;;;3.73;3.43;;;10.40;67.70;;;;;;6282333;28;20390;-77
2023/12/25 08:41:41;;;;;;;2.77;2.70;;;10.40;67.80;;;;;;6283762;28;20854;-76
2023/12/25 08:44:45;;;;;;;3.40;2.73;;;10.40;67.80;;;;;;6275759;28;20230;-79
2023/12/25 08:47:51;;;;;;;5.97;3.10;;;10.30;67.90;;;;;;6283895;28;20333;-78
2023/12/25 08:50:56;;;;;;;3.47;3.17;;;10.40;67.80;;;;;;6287192;28;20332;-79
2023/12/25 08:54:00;;;;;;;3.03;2.83;;;10.40;68.20;;;;;;6284284;28;20241;-79
2023/12/25 08:57:05;;;;;;;3.87;2.83;;;10.40;68.40;;;;;;6282327;28;20309;-78
2023/12/25 09:00:10;;;;;;;3.80;3.43;;;10.40;68.70;;;;;;6287860;28;20238;-77
2023/12/25 09:03:13;;;;;;;3.20;2.80;;;10.30;68.80;;;;;;6283103;28;20312;-79
2023/12/25 09:06:18;;;;;;;3.23;2.93;;;10.40;68.90;;;;;;6264759;28;20241;-78
2023/12/25 09:09:23;;;;;;;4.20;2.70;;;10.40;68.70;;;;;;6280084;28;21798;-79
2023/12/25 09:12:26;;;;;;;3.23;3.03;;;10.40;68.70;;;;;;6282187;28;20835;-81
2023/12/25 09:15:29;;;;;;;3.37;3.07;;;10.40;68.40;;;;;;6282866;28;20244;-80
2023/12/25 09:18:32;;;;;;;3.50;3.20;;;10.40;68.40;;;;;;6283066;28;20232;-79
2023/12/25 09:21:39;;;;;;;4.33;2.83;;;10.40;68.10;;;;;;6280008;28;20233;-78
2023/12/25 09:24:44;;;;;;;2.93;2.77;;;10.40;68.30;;;;;;6281327;28;20238;-80
2023/12/25 09:27:47;;;;;;;3.73;3.43;;;10.40;67.90;;;;;;6270894;28;20240;-79
2023/12/25 09:30:50;;;;;;;4.67;3.63;;;10.40;68.00;;;;;;6278365;28;20226;-79
2023/12/25 09:33:53;;;;;;;3.57;3.33;;;10.30;67.00;;;;;;6279563;28;20379;-79
2023/12/25 09:36:58;;;;;;;3.03;2.73;;;10.30;67.60;;;;;;6277980;28;20315;-78
2023/12/25 09:40:01;;;;;;;4.00;3.30;;;10.40;67.70;;;;;;6275133;28;20241;-79
2023/12/25 09:43:05;;;;;;;3.30;3.07;;;10.40;67.90;;;;;;6278601;28;20237;-78
2023/12/25 09:46:10;;;;;;;5.20;3.00;;;10.30;68.20;;;;;;6273854;28;20248;-80
2023/12/25 09:49:14;;;;;;;2.90;2.70;;;10.30;68.40;;;;;;6264439;28;21003;-77
2023/12/25 09:52:21;;;;;;;6.50;3.47;;;10.30;68.30;;;;;;6271699;28;20234;-79
2023/12/25 09:55:25;;;;;;;4.17;3.47;;;10.20;69.00;;;;;;6276612;28;20269;-77
2023/12/25 09:58:28;;;;;;;6.13;3.73;;;10.30;69.00;;;;;;6287451;28;20225;-78
2023/12/25 10:01:37;;;;;;;3.60;3.30;;;10.40;68.30;;;;;;6285988;28;20229;-77
2023/12/25 10:04:43;;;;;;;3.60;3.37;;;10.40;68.10;;;;;;6279278;28;20306;-80
2023/12/25 10:07:49;;;;;;;3.13;2.83;;;10.40;68.50;;;;;;6271770;28;20365;-80
2023/12/25 10:10:54;;;;;;;3.80;3.07;;;10.50;68.10;;;;;;6282403;28;20241;-78
2023/12/25 10:13:57;;;;;;;6.07;3.27;;;10.50;67.90;;;;;;6276545;28;20268;-79
2023/12/25 10:17:00;;;;;;;3.10;3.00;;;10.50;67.90;;;;;;6277452;28;20246;-80
2023/12/25 10:20:04;;;;;;;2.80;2.67;;;10.40;67.90;;;;;;6280247;28;20737;-79
2023/12/25 10:23:13;;;;;;;8.40;3.30;;;10.40;68.40;;;;;;6285695;28;20240;-79
2023/12/25 10:26:28;;;;;;;3.37;3.17;;;10.50;68.20;;;;;;6276286;28;20232;-78
2023/12/25 10:29:35;;;;;;;3.20;2.90;;;10.50;68.20;;;;;;6283629;28;20371;-78
2023/12/25 10:32:39;;;;;;;3.17;2.90;;;10.60;68.30;;;;;;6281303;28;20333;-77
2023/12/25 10:35:43;;;;;;;3.30;3.10;;;10.60;68.20;;;;;;6276336;28;20636;-79
2023/12/25 10:38:59;;;;;;;3.37;3.10;;;10.50;67.50;;;;;;6271810;28;20334;-78
2023/12/25 10:42:04;;;;;;;5.00;3.10;;;10.40;68.00;;;;;;6281320;28;20225;-79
2023/12/25 10:45:10;;;;;;;5.43;3.10;;;10.50;68.10;;;;;;6278815;28;20249;-79
2023/12/25 10:48:14;;;;;;;3.53;3.23;;;10.40;68.00;;;;;;6275059;28;20236;-79
2023/12/25 10:51:25;;;;;;;3.83;3.20;;;10.40;68.30;;;;;;6285048;28;20245;-79
2023/12/25 10:54:30;;;;;;;3.30;3.00;;;10.50;68.20;;;;;;6282869;28;20708;-80
2023/12/25 10:57:35;;;;;;;3.73;3.03;;;10.50;68.40;;;;;;6268024;28;20701;-79
2023/12/25 11:00:43;;;;;;;3.27;2.93;;;10.50;68.30;;;;;;6284906;28;20236;-80
2023/12/25 11:03:48;;;;;;;4.70;3.13;;;10.50;68.00;;;;;;6276795;28;20230;-80
2023/12/25 11:06:53;;;;;;;6.40;3.80;;;10.60;67.80;;;;;;6274123;28;20230;-78
2023/12/25 11:10:00;;;;;;;4.73;3.33;;;10.60;67.50;;;;;;6280965;28;20221;-79
2023/12/25 11:13:06;;;;;;;4.87;3.20;;;10.70;67.40;;;;;;6271955;28;20776;-78
2023/12/25 11:16:10;;;;;;;3.87;3.57;;;10.70;68.00;;;;;;6280448;28;20340;-79
2023/12/25 11:19:14;;;;;;;3.57;3.37;;;10.70;67.70;;;;;;6281427;28;20229;-80
2023/12/25 11:22:28;;;;;;;6.97;3.63;;;10.70;67.70;;;;;;6273757;28;20237;-79
2023/12/25 11:25:33;;;;;;;5.23;3.57;;;10.80;67.70;;;;;;6273054;28;20245;-79
2023/12/25 11:28:38;;;;;;;3.40;3.20;;;11.00;67.60;;;;;;6284809;28;20235;-77
2023/12/25 11:31:44;;;;;;;5.70;3.30;;;10.90;66.90;;;;;;6283967;28;20233;-81
2023/12/25 11:34:49;;;;;;;3.47;3.07;;;10.80;67.20;;;;;;6272730;28;20236;-79
2023/12/25 11:38:31;;;;;;;3.70;3.40;;;10.70;67.60;;;;;;6279953;28;20471;-79
2023/12/25 11:41:37;;;;;;;3.70;3.40;;;10.70;68.10;;;;;;6268265;28;20230;-78
2023/12/25 11:44:42;;;;;;;4.77;3.10;;;10.80;67.70;;;;;;6280232;28;20682;-79
2023/12/25 11:47:47;;;;;;;5.13;3.30;;;10.80;67.80;;;;;;6267282;28;20253;-78
2023/12/25 11:50:59;;;;;;;4.30;3.40;;;10.80;67.90;;;;;;6270224;28;20217;-79
2023/12/25 11:54:03;;;;;;;3.60;3.30;;;10.90;67.50;;;;;;6296954;28;20233;-78
2023/12/25 11:57:31;;;;;;;4.77;3.20;;;10.80;67.10;;;;;;6281586;28;20249;-79
2023/12/25 12:00:35;;;;;;;5.40;3.70;;;10.90;67.40;;;;;;6272562;28;20253;-77
2023/12/25 12:03:42;;;;;;;4.23;3.30;;;10.80;67.20;;;;;;6288171;28;20240;-78
2023/12/25 12:06:45;;;;;;;4.70;3.67;;;10.80;67.50;;;;;;6279463;28;20301;-78
2023/12/25 12:09:48;;;;;;;3.57;3.17;;;10.70;67.30;;;;;;6274516;28;20319;-80
2023/12/25 12:12:55;;;;;;;4.87;3.40;;;10.70;67.50;;;;;;6276398;28;20243;-78
2023/12/25 12:15:58;;;;;;;4.03;3.27;;;10.70;67.50;;;;;;6274204;28;20240;-79
2023/12/25 12:19:02;;;;;;;5.43;3.50;;;10.70;67.80;;;;;;6282480;28;20750;-79
2023/12/25 12:22:05;;;;;;;4.70;3.30;;;10.70;67.90;;;;;;6280381;28;20256;-80
2023/12/25 12:25:13;;;;;;;9.43;3.67;;;10.60;68.20;;;;;;6276217;28;20240;-79
2023/12/25 12:28:18;;;;;;;3.60;3.10;;;10.60;68.00;;;;;;6288138;28;20348;-79
2023/12/25 12:31:22;;;;;;;5.10;2.97;;;10.60;68.50;;;;;;6279064;28;20252;-78
2023/12/25 12:34:25;;;;;;;6.73;3.53;;;10.70;68.60;;;;;;6275248;28;20237;-78
2023/12/25 12:37:29;;;;;;;3.80;3.60;;;10.70;67.80;;;;;;6279890;28;20714;-79
2023/12/25 12:40:33;;;;;;;4.87;3.40;;;10.70;67.60;;;;;;6287638;28;20643;-79
2023/12/25 12:43:39;;;;;;;4.40;3.83;;;10.70;67.50;;;;;;6287618;28;20773;-78
2023/12/25 12:46:42;;;;;;;4.47;3.43;;;10.70;67.50;;;;;;6281236;28;20237;-79
2023/12/25 12:49:45;;;;;;;3.30;3.03;;;10.70;67.20;;;;;;6288999;28;20264;-80
2023/12/25 12:52:49;;;;;;;7.17;3.43;;;10.70;67.20;;;;;;6271321;28;20248;-79
2023/12/25 12:55:52;;;;;;;4.53;3.37;;;10.80;67.30;;;;;;6273645;28;20779;-79
2023/12/25 12:58:57;;;;;;;3.63;3.27;;;10.90;67.00;;;;;;6276083;28;20237;-80
2023/12/25 13:02:00;;;;;;;3.40;3.10;;;10.90;66.90;;;;;;6270503;28;20257;-79
2023/12/25 13:05:03;;;;;;;3.53;3.10;;;11.00;66.90;;;;;;6276014;28;20257;-80
2023/12/25 13:08:07;;;;;;;3.57;3.27;;;11.10;66.40;;;;;;6281293;28;20240;-80
2023/12/25 13:11:10;;;;;;;5.13;3.90;;;11.00;66.40;;;;;;6273328;28;20241;-80
2023/12/25 13:14:15;;;;;;;4.83;3.30;;;10.90;66.40;;;;;;6280128;28;20233;-80
2023/12/25 13:17:18;;;;;;;3.47;3.20;;;10.90;66.50;;;;;;6286296;28;20244;-78
2023/12/25 13:20:22;;;;;;;4.50;3.33;;;10.90;66.40;;;;;;6287570;28;20626;-79
2023/12/25 13:23:25;;;;;;;5.97;3.40;;;10.80;66.80;;;;;;6284103;28;20790;-78
2023/12/25 13:26:30;;;;;;;4.53;2.97;;;10.70;67.10;;;;;;6279880;28;20237;-78
2023/12/25 13:29:35;;;;;;;3.90;3.57;;;10.60;67.20;;;;;;6279085;28;20312;-78
2023/12/25 13:32:38;;;;;;;8.30;3.87;;;10.50;67.30;;;;;;6283928;28;20279;-78
2023/12/25 13:35:41;;;;;;;3.67;3.33;;;10.50;67.50;;;;;;6268796;28;20745;-79
2023/12/25 13:38:45;;;;;;;3.83;3.50;;;10.50;67.60;;;;;;6276863;28;20744;-79
2023/12/25 13:41:48;;;;;;;3.47;3.17;;;10.50;67.70;;;;;;6275294;28;20264;-80
2023/12/25 13:44:53;;;;;;;7.27;3.30;;;10.50;67.30;;;;;;6275504;28;20245;-78
2023/12/25 13:47:56;;;;;;;3.53;3.23;;;10.50;67.00;;;;;;6280672;28;20238;-78
2023/12/25 13:51:00;;;;;;;4.73;3.43;;;10.50;67.40;;;;;;6282229;28;20243;-78
2023/12/25 13:54:04;;;;;;;5.37;3.10;;;10.50;67.20;;;;;;6273313;28;20240;-77
2023/12/25 13:57:07;;;;;;;3.57;2.90;;;10.50;67.30;;;;;;6276507;28;20221;-80
2023/12/25 14:00:14;;;;;;;4.50;3.43;;;10.40;67.70;;;;;;6273027;28;20658;-78
2023/12/25 14:03:18;;;;;;;6.00;3.47;;;10.30;67.90;;;;;;6279108;28;20474;-78
2023/12/25 14:06:22;;;;;;;3.40;3.10;;;10.20;68.30;;;;;;6276959;28;20737;-80
2023/12/25 14:09:25;;;;;;;4.13;3.07;;;10.20;68.40;;;;;;6273566;28;20630;-77
2023/12/25 14:12:29;;;;;;;3.63;3.33;;;10.30;68.60;;;;;;6277059;28;20720;-80
2023/12/25 14:15:36;;;;;;;3.20;3.00;;;10.20;68.70;;;;;;6272424;28;20244;-77
2023/12/25 14:18:39;;;;;;;3.37;3.13;;;10.20;69.00;;;;;;6283039;28;20256;-80
2023/12/25 14:21:43;;;;;;;3.97;3.40;;;10.20;69.00;;;;;;6270568;28;20237;-78
2023/12/25 14:24:46;;;;;;;4.90;3.87;;;10.20;68.70;;;;;;6279972;28;20752;-79
2023/12/25 14:27:50;;;;;;;3.30;3.10;;;10.20;68.80;;;;;;6273499;28;20244;-79
2023/12/25 14:30:56;;;;;;;5.73;3.20;;;10.10;69.00;;;;;;6272863;28;20883;-77
2023/12/25 14:33:59;;;;;;;3.83;3.50;;;10.00;69.20;;;;;;6287067;28;20241;-78
2023/12/25 14:37:03;;;;;;;3.67;3.37;;;10.00;69.10;;;;;;6278685;28;20272;-78
2023/12/25 14:40:08;;;;;;;4.63;3.77;;;10.00;69.20;;;;;;6269966;28;20768;-78
2023/12/25 14:43:11;;;;;;;5.77;3.60;;;10.00;69.30;;;;;;6264515;28;20233;-78
2023/12/25 14:46:15;;;;;;;5.33;3.43;;;9.90;69.70;;;;;;6266675;28;20230;-80
2023/12/25 14:49:25;;;;;;;5.43;3.67;;;10.00;69.70;;;;;;6278682;28;20242;-79
2023/12/25 14:52:28;;;;;;;5.33;3.50;;;10.00;69.90;;;;;;6272946;28;20308;-79
2023/12/25 14:55:31;;;;;;;3.27;3.07;;;10.00;69.80;;;;;;6272727;28;20234;-76
2023/12/25 14:58:36;;;;;;;3.83;3.37;;;10.00;69.70;;;;;;6280056;28;20240;-78
2023/12/25 15:01:41;;;;;;;4.37;3.53;;;10.00;69.60;;;;;;6266211;28;20894;-80
2023/12/25 15:04:44;;;;;;;4.63;3.00;;;10.00;69.70;;;;;;6270433;28;20237;-79
2023/12/25 15:07:48;;;;;;;5.80;3.37;;;10.10;69.60;;;;;;6276351;28;20252;-77
2023/12/25 15:10:51;;;;;;;3.10;2.93;;;10.00;69.50;;;;;;6279704;28;20308;-81
2023/12/25 15:13:55;;;;;;;3.83;3.53;;;10.10;69.40;;;;;;6275664;28;20237;-80
2023/12/25 15:17:00;;;;;;;6.33;3.40;;;10.00;69.30;;;;;;6279822;28;20244;-79
2023/12/25 15:20:04;;;;;;;4.17;3.27;;;10.00;69.00;;;;;;6275187;28;20236;-80
2023/12/25 15:23:08;;;;;;;3.63;3.43;;;10.00;68.70;;;;;;6263904;28;20229;-80
2023/12/25 15:26:12;;;;;;;3.50;3.20;;;10.00;68.70;;;;;;6278666;28;20229;-79
2023/12/25 15:29:15;;;;;;;3.27;3.10;;;10.00;68.70;;;;;;6282811;28;20287;-78
2023/12/25 15:32:21;;;;;;;6.00;3.20;;;9.90;68.80;;;;;;6278873;28;20747;-77
2023/12/25 15:35:24;;;;;;;4.57;3.97;;;9.90;68.60;;;;;;6269273;28;20289;-81
2023/12/25 15:38:28;;;;;;;5.97;3.50;;;9.80;68.50;;;;;;6274731;28;20260;-78
2023/12/25 15:41:31;;;;;;;5.10;4.07;;;9.80;68.50;;;;;;6274999;28;20234;-79
2023/12/25 15:44:34;;;;;;;4.47;2.97;;;9.80;68.80;;;;;;6285093;28;20237;-80
2023/12/25 15:47:40;;;;;;;3.77;3.50;;;9.70;69.00;;;;;;6274233;28;20248;-79
2023/12/25 15:50:43;;;;;;;4.27;3.67;;;9.70;68.80;;;;;;6269205;28;20256;-80
2023/12/25 15:53:46;;;;;;;4.80;3.37;;;9.70;69.00;;;;;;6273947;28;20241;-80
2023/12/25 15:56:50;;;;;;;4.23;3.83;;;9.60;69.10;;;;;;6273294;28;20770;-80
2023/12/25 15:59:54;;;;;;;6.20;3.47;;;9.60;69.10;;;;;;6280061;28;20252;-81
2023/12/25 16:02:59;;;;;;;4.87;3.47;;;9.60;69.10;;;;;;6286103;28;20248;-80